createdAt,value
2023-02-13T00:02:47.569Z,54.31
2023-02-13T00:05:51.387Z,53.55
2023-02-13T00:08:56.682Z,54.12
2023-02-13T00:12:00.498Z,54.44
2023-02-13T00:15:04.809Z,54.30
2023-02-13T00:18:08.435Z,54.78
2023-02-13T00:21:14.181Z,54.57
2023-02-13T00:24:19.325Z,54.61
2023-02-13T00:27:23.464Z,55.04
2023-02-13T00:30:27.253Z,54.71
2023-02-13T00:33:31.279Z,54.53
2023-02-13T00:36:35.500Z,54.08
2023-02-13T00:39:40.669Z,53.86
2023-02-13T00:42:44.375Z,53.86
2023-02-13T00:45:48.037Z,53.46
2023-02-13T00:48:51.635Z,53.23
2023-02-13T00:51:55.388Z,53.63
2023-02-13T00:55:01.035Z,53.59
2023-02-13T00:58:04.781Z,53.31
2023-02-13T01:01:08.579Z,53.23
2023-02-13T01:04:12.228Z,52.97
2023-02-13T01:07:16.797Z,53.42
2023-02-13T01:10:22.619Z,52.80
2023-02-13T01:13:26.435Z,52.83
2023-02-13T01:16:30.716Z,52.95
2023-02-13T01:19:34.533Z,52.62
2023-02-13T01:22:38.280Z,52.17
2023-02-13T01:25:44.278Z,52.68
2023-02-13T01:28:48.285Z,52.42
2023-02-13T01:31:52.203Z,52.48
2023-02-13T01:34:55.873Z,51.82
2023-02-13T01:37:59.532Z,52.12
2023-02-13T01:41:04.760Z,53.17
2023-02-13T01:44:41.966Z,54.05
2023-02-13T01:47:49.524Z,54.56
2023-02-13T01:50:59.112Z,55.06
2023-02-13T01:54:06.006Z,55.01
2023-02-13T01:57:16.569Z,55.66
2023-02-13T02:00:21.254Z,56.52
2023-02-13T02:03:29.054Z,56.86
2023-02-13T02:06:40.352Z,56.08
2023-02-13T02:09:46.784Z,56.63
2023-02-13T02:13:00.203Z,57.41
2023-02-13T02:16:05.359Z,57.47
2023-02-13T02:19:16.246Z,56.42
2023-02-13T02:23:00.362Z,57.74
2023-02-13T02:26:43.802Z,58.55
2023-02-13T02:30:20.595Z,58.64
2023-02-13T02:33:35.760Z,59.37
2023-02-13T02:36:58.525Z,59.19
2023-02-13T02:40:19.681Z,58.82
2023-02-13T02:43:39.840Z,59.31
2023-02-13T02:47:09.316Z,58.54
2023-02-13T02:50:41.200Z,59.81
2023-02-13T02:53:51.967Z,58.90
2023-02-13T02:57:02.191Z,58.35
2023-02-13T03:00:24.858Z,59.52
2023-02-13T03:03:47.594Z,61.12
2023-02-13T03:06:57.967Z,60.36
2023-02-13T03:10:22.397Z,59.66
2023-02-13T03:13:40.546Z,59.21
2023-02-13T03:17:02.079Z,58.66
2023-02-13T03:20:36.465Z,59.43
2023-02-13T03:23:52.915Z,59.00
2023-02-13T03:27:05.175Z,59.83
2023-02-13T03:30:18.550Z,59.44
2023-02-13T03:33:41.948Z,59.31
2023-02-13T03:37:07.527Z,60.22
2023-02-13T03:40:17.710Z,59.85
2023-02-13T03:43:21.934Z,58.89
2023-02-13T03:46:28.099Z,58.61
2023-02-13T03:50:09.215Z,58.83
2023-02-13T03:53:16.116Z,60.59
2023-02-13T03:56:40.774Z,59.99
2023-02-13T03:59:44.538Z,60.31
2023-02-13T04:02:57.404Z,59.86
2023-02-13T04:06:06.295Z,59.97
2023-02-13T04:09:10.042Z,60.17
2023-02-13T04:12:20.468Z,59.50
2023-02-13T04:15:30.359Z,60.13
2023-02-13T04:18:35.612Z,59.77
2023-02-13T04:21:41.601Z,60.16
2023-02-13T04:24:45.232Z,60.25
2023-02-13T04:27:50.227Z,60.85
2023-02-13T04:30:54.077Z,60.87
2023-02-13T04:33:58.036Z,60.77
2023-02-13T04:37:01.612Z,60.43
2023-02-13T04:40:05.877Z,60.48
2023-02-13T04:43:11.054Z,60.35
2023-02-13T04:46:14.638Z,59.74
2023-02-13T04:49:18.166Z,60.47
2023-02-13T04:52:21.646Z,60.18
2023-02-13T04:55:25.734Z,60.75
2023-02-13T04:58:30.882Z,60.35
2023-02-13T05:01:34.588Z,59.57
2023-02-13T05:04:38.294Z,58.81
2023-02-13T05:07:43.026Z,59.68
2023-02-13T05:10:46.578Z,58.93
2023-02-13T05:13:51.651Z,59.06
2023-02-13T05:16:55.274Z,59.11
2023-02-13T05:19:59.503Z,58.87
2023-02-13T05:23:20.470Z,58.55
2023-02-13T05:26:24.078Z,59.81
2023-02-13T05:29:29.247Z,59.87
2023-02-13T05:32:32.817Z,59.74
2023-02-13T05:35:36.410Z,59.54
2023-02-13T05:38:41.455Z,59.93
2023-02-13T05:41:45.781Z,60.00
2023-02-13T05:44:50.909Z,59.78
2023-02-13T05:47:54.528Z,59.76
2023-02-13T05:50:58.466Z,60.97
2023-02-13T05:54:02.262Z,60.22
2023-02-13T05:57:06.398Z,60.01
2023-02-13T06:00:12.941Z,59.29
2023-02-13T06:03:16.778Z,58.82
2023-02-13T06:06:20.688Z,58.17
2023-02-13T06:09:24.714Z,58.43
2023-02-13T06:12:28.558Z,58.29
2023-02-13T06:15:33.759Z,58.36
2023-02-13T06:18:37.811Z,57.94
2023-02-13T06:21:41.613Z,58.09
2023-02-13T06:24:45.422Z,57.92
2023-02-13T06:27:49.736Z,57.30
2023-02-13T06:30:55.590Z,57.66
2023-02-13T06:33:59.647Z,57.08
2023-02-13T06:37:03.404Z,57.70
2023-02-13T06:40:08.694Z,56.49
2023-02-13T06:43:12.484Z,55.14
2023-02-13T06:46:17.843Z,55.88
2023-02-13T06:49:21.734Z,55.10
2023-02-13T06:52:25.743Z,55.23
2023-02-13T06:55:29.761Z,55.05
2023-02-13T06:58:34.233Z,53.98
2023-02-13T07:01:39.452Z,52.97
2023-02-13T07:04:43.264Z,51.77
2023-02-13T07:07:47.132Z,51.76
2023-02-13T07:10:50.845Z,52.29
2023-02-13T07:13:54.586Z,50.50
2023-02-13T07:17:00.165Z,50.31
2023-02-13T07:20:04.743Z,49.63
2023-02-13T07:23:08.615Z,49.14
2023-02-13T07:26:12.585Z,48.92
2023-02-13T07:29:16.345Z,48.46
2023-02-13T07:32:21.826Z,48.51
2023-02-13T07:35:25.595Z,47.83
2023-02-13T07:38:29.388Z,47.22
2023-02-13T07:41:33.135Z,47.82
2023-02-13T07:44:37.017Z,47.61
2023-02-13T07:47:42.349Z,47.65
2023-02-13T07:50:46.115Z,47.53
2023-02-13T07:53:50.012Z,46.30
2023-02-13T07:56:53.823Z,45.85
2023-02-13T07:59:57.665Z,46.33
2023-02-13T08:03:03.531Z,46.30
2023-02-13T08:06:08.872Z,45.79
2023-02-13T08:09:39.581Z,45.44
2023-02-13T08:12:44.423Z,44.49
2023-02-13T08:15:48.397Z,45.44
2023-02-13T08:18:53.722Z,45.25
2023-02-13T08:21:57.964Z,44.82
2023-02-13T08:25:01.771Z,44.97
2023-02-13T08:28:06.002Z,43.74
2023-02-13T08:31:12.756Z,43.14
2023-02-13T08:34:18.031Z,43.00
2023-02-13T08:37:21.809Z,42.63
2023-02-13T08:40:26.097Z,43.69
2023-02-13T08:43:29.880Z,43.23
2023-02-13T08:46:33.691Z,42.99
2023-02-13T08:49:38.828Z,41.89
2023-02-13T08:52:42.608Z,41.84
2023-02-13T08:55:53.869Z,41.86
2023-02-13T08:58:57.622Z,41.68
2023-02-13T09:02:01.611Z,41.91
2023-02-13T09:05:07.474Z,41.14
2023-02-13T09:08:13.912Z,40.27
2023-02-13T09:11:17.710Z,40.85
2023-02-13T09:14:22.218Z,41.10
2023-02-13T09:17:27.111Z,40.34
2023-02-13T09:20:32.274Z,40.66
2023-02-13T09:23:37.533Z,40.78
2023-02-13T09:26:41.378Z,40.70
2023-02-13T09:29:45.239Z,40.25
2023-02-13T09:32:53.636Z,40.74
2023-02-13T09:35:59.179Z,40.81
2023-02-13T09:39:03.302Z,40.05
2023-02-13T09:42:17.166Z,39.29
2023-02-13T09:45:22.636Z,40.24
2023-02-13T09:48:31.248Z,39.66
2023-02-13T09:51:37.194Z,39.57
2023-02-13T09:54:40.915Z,38.66
2023-02-13T09:57:49.134Z,38.67
2023-02-13T10:00:58.759Z,38.25
2023-02-13T10:04:29.079Z,38.49
2023-02-13T10:07:42.044Z,38.50
2023-02-13T10:10:53.519Z,38.41
2023-02-13T10:14:07.385Z,38.65
2023-02-13T10:17:16.527Z,38.33
2023-02-13T10:20:30.045Z,37.87
2023-02-13T10:23:43.995Z,37.79
2023-02-13T10:26:48.926Z,37.74
2023-02-13T10:30:07.568Z,36.82
2023-02-13T10:33:21.191Z,36.90
2023-02-13T10:36:29.269Z,36.81
2023-02-13T10:39:34.556Z,36.80
2023-02-13T10:42:46.490Z,35.79
2023-02-13T10:46:11.971Z,35.25
2023-02-13T10:49:36.378Z,35.34
2023-02-13T10:52:51.688Z,34.79
2023-02-13T10:56:13.178Z,35.03
2023-02-13T10:59:32.454Z,34.35
2023-02-13T11:02:37.335Z,34.99
2023-02-13T11:05:42.727Z,34.94
2023-02-13T11:08:49.263Z,35.55
2023-02-13T11:11:55.158Z,35.51
2023-02-13T11:15:00.568Z,35.04
2023-02-13T11:18:18.327Z,34.59
2023-02-13T11:21:25.200Z,34.14
2023-02-13T11:24:31.378Z,33.53
2023-02-13T11:27:39.955Z,32.97
2023-02-13T11:30:43.939Z,33.33
2023-02-13T11:33:47.969Z,33.17
2023-02-13T11:36:54.086Z,32.88
2023-02-13T11:40:00.264Z,33.11
2023-02-13T11:43:09.470Z,33.30
2023-02-13T11:46:20.391Z,33.24
2023-02-13T11:49:25.883Z,32.54
2023-02-13T11:52:31.153Z,32.38
2023-02-13T11:55:38.390Z,32.02
2023-02-13T11:58:44.411Z,31.64
2023-02-13T12:01:50.644Z,32.00
2023-02-13T12:04:56.105Z,31.74
2023-02-13T12:08:02.311Z,31.54
2023-02-13T12:11:16.392Z,30.74
2023-02-13T12:14:23.758Z,31.33
2023-02-13T12:17:32.660Z,31.28
2023-02-13T12:20:47.805Z,31.44
2023-02-13T12:23:59.381Z,31.27
2023-02-13T12:27:16.452Z,30.96
2023-02-13T12:30:40.453Z,30.96
2023-02-13T12:34:25.693Z,31.82
2023-02-13T12:37:44.546Z,31.44
2023-02-13T12:41:07.721Z,31.39
2023-02-13T12:44:31.661Z,31.37
2023-02-13T12:47:45.735Z,31.31
2023-02-13T12:51:04.487Z,30.94
2023-02-13T12:54:25.407Z,30.67
2023-02-13T12:57:47.072Z,29.66
2023-02-13T13:01:03.073Z,31.05
2023-02-13T13:04:18.447Z,31.18
2023-02-13T13:07:49.687Z,30.92
2023-02-13T13:11:04.153Z,30.72
2023-02-13T13:14:15.868Z,30.54
2023-02-13T13:17:33.983Z,30.38
2023-02-13T13:21:00.169Z,30.98
2023-02-13T13:24:11.497Z,30.54
2023-02-13T13:27:22.582Z,30.33
2023-02-13T13:30:30.444Z,29.85
2023-02-13T13:33:36.243Z,30.21
2023-02-13T13:36:50.068Z,29.83
2023-02-13T13:39:59.051Z,29.82
2023-02-13T13:43:09.842Z,30.18
2023-02-13T13:46:20.398Z,30.20
2023-02-13T13:49:36.610Z,30.40
2023-02-13T13:52:41.927Z,30.20
2023-02-13T13:56:08.907Z,29.95
2023-02-13T13:59:19.861Z,30.17
2023-02-13T14:02:44.246Z,30.88
2023-02-13T14:06:03.519Z,30.92
2023-02-13T14:09:29.638Z,31.34
2023-02-13T14:12:48.107Z,31.25
2023-02-13T14:15:55.384Z,31.20
2023-02-13T14:18:59.322Z,31.70
2023-02-13T14:22:32.655Z,32.04
2023-02-13T14:25:38.844Z,32.36
2023-02-13T14:28:44.292Z,31.70
2023-02-13T14:32:01.559Z,31.57
2023-02-13T14:35:17.841Z,31.82
2023-02-13T14:38:26.481Z,32.10
2023-02-13T14:41:59.153Z,31.98
2023-02-13T14:45:05.612Z,32.11
2023-02-13T14:48:15.450Z,31.99
2023-02-13T14:51:29.011Z,32.20
2023-02-13T14:54:35.884Z,32.58
2023-02-13T14:57:45.545Z,32.77
2023-02-13T15:00:56.785Z,33.03
2023-02-13T15:04:07.111Z,33.07
2023-02-13T15:07:17.483Z,33.50
2023-02-13T15:10:35.578Z,33.84
2023-02-13T15:13:41.281Z,34.00
2023-02-13T15:16:47.707Z,34.29
2023-02-13T15:19:54.362Z,34.31
2023-02-13T15:22:59.397Z,34.26
2023-02-13T15:26:05.225Z,34.64
2023-02-13T15:29:27.866Z,34.67
2023-02-13T15:32:37.173Z,34.89
2023-02-13T15:35:41.256Z,35.37
2023-02-13T15:38:45.073Z,35.19
2023-02-13T15:41:52.072Z,35.88
2023-02-13T15:44:59.844Z,36.36
2023-02-13T15:48:03.780Z,36.86
2023-02-13T15:51:07.745Z,36.89
2023-02-13T15:54:25.775Z,36.86
2023-02-13T15:57:30.305Z,36.88
2023-02-13T16:00:38.193Z,36.81
2023-02-13T16:03:44.977Z,36.81
2023-02-13T16:06:50.906Z,37.17
2023-02-13T16:10:17.696Z,37.07
2023-02-13T16:13:21.540Z,37.29
2023-02-13T16:16:27.679Z,37.29
2023-02-13T16:19:36.639Z,37.40
2023-02-13T16:22:45.855Z,37.26
2023-02-13T16:25:50.251Z,37.55
2023-02-13T16:28:55.973Z,37.60
2023-02-13T16:32:14.207Z,37.75
2023-02-13T16:35:28.313Z,37.66
2023-02-13T16:38:35.956Z,37.61
2023-02-13T16:41:39.885Z,38.15
2023-02-13T16:44:43.766Z,37.87
2023-02-13T16:47:49.077Z,38.01
2023-02-13T16:50:57.413Z,37.69
2023-02-13T16:54:02.624Z,37.56
2023-02-13T16:57:18.973Z,37.53
2023-02-13T17:00:27.958Z,37.49
2023-02-13T17:03:34.536Z,37.79
2023-02-13T17:06:38.588Z,37.89
2023-02-13T17:09:42.424Z,37.54
2023-02-13T17:12:47.098Z,37.83
2023-02-13T17:15:52.128Z,37.43
2023-02-13T17:18:57.447Z,37.40
2023-02-13T17:22:01.346Z,37.46
2023-02-13T17:25:08.422Z,37.58
2023-02-13T17:28:15.848Z,38.27
2023-02-13T17:31:19.777Z,38.27
2023-02-13T17:34:25.067Z,38.29
2023-02-13T17:37:30.209Z,38.43
2023-02-13T17:40:34.066Z,38.14
2023-02-13T17:43:37.921Z,38.35
2023-02-13T17:46:42.122Z,38.45
2023-02-13T17:49:47.975Z,38.54
2023-02-13T17:52:51.982Z,38.44
2023-02-13T17:55:55.815Z,38.68
2023-02-13T17:58:59.630Z,39.14
2023-02-13T18:02:03.558Z,39.50
2023-02-13T18:05:09.915Z,39.68
2023-02-13T18:08:13.675Z,40.52
2023-02-13T18:11:17.405Z,40.90
2023-02-13T18:14:21.209Z,40.93
2023-02-13T18:17:24.953Z,41.12
2023-02-13T18:20:30.245Z,41.18
2023-02-13T18:23:34.063Z,41.41
2023-02-13T18:26:37.910Z,41.98
2023-02-13T18:29:41.711Z,41.96
2023-02-13T18:32:45.517Z,42.33
2023-02-13T18:35:50.813Z,42.37
2023-02-13T18:38:54.679Z,42.00
2023-02-13T18:41:58.564Z,41.78
2023-02-13T18:45:02.333Z,42.15
2023-02-13T18:48:08.905Z,42.17
2023-02-13T18:51:39.117Z,42.32
2023-02-13T18:54:42.908Z,42.18
2023-02-13T18:57:46.705Z,42.39
2023-02-13T19:00:50.548Z,42.70
2023-02-13T19:03:55.688Z,42.50
2023-02-13T19:07:00.916Z,43.61
2023-02-13T19:10:04.916Z,43.22
2023-02-13T19:13:08.696Z,43.79
2023-02-13T19:16:15.786Z,43.29
2023-02-13T19:19:19.649Z,44.22
2023-02-13T19:22:24.917Z,44.24
2023-02-13T19:25:28.766Z,44.03
2023-02-13T19:28:32.587Z,44.85
2023-02-13T19:31:36.729Z,44.91
2023-02-13T19:34:40.527Z,45.03
2023-02-13T19:37:45.841Z,45.43
2023-02-13T19:40:49.646Z,46.03
2023-02-13T19:43:53.856Z,46.24
2023-02-13T19:46:57.798Z,46.52
2023-02-13T19:50:01.606Z,46.48
2023-02-13T19:53:07.980Z,46.33
2023-02-13T19:56:14.498Z,46.72
2023-02-13T19:59:18.359Z,46.90
2023-02-13T20:02:22.669Z,47.30
2023-02-13T20:05:26.467Z,47.95
2023-02-13T20:08:31.794Z,48.06
2023-02-13T20:11:35.785Z,48.19
2023-02-13T20:14:39.547Z,48.08
2023-02-13T20:17:43.284Z,48.31
2023-02-13T20:20:47.086Z,48.89
2023-02-13T20:23:53.426Z,49.11
2023-02-13T20:26:59.162Z,49.48
2023-02-13T20:30:06.829Z,49.10
2023-02-13T20:33:11.636Z,49.65
2023-02-13T20:36:17.056Z,49.74
2023-02-13T20:39:22.385Z,49.84
2023-02-13T20:42:26.408Z,48.93
2023-02-13T20:45:30.189Z,49.03
2023-02-13T20:48:36.118Z,49.59
2023-02-13T20:51:40.351Z,49.49
2023-02-13T20:54:45.692Z,50.20
2023-02-13T20:57:49.491Z,49.91
2023-02-13T21:00:53.347Z,50.08
2023-02-13T21:03:58.091Z,50.58
2023-02-13T21:07:01.913Z,50.28
2023-02-13T21:10:08.344Z,50.72
2023-02-13T21:13:12.247Z,50.62
2023-02-13T21:16:18.028Z,51.35
2023-02-13T21:19:22.309Z,50.85
2023-02-13T21:22:26.187Z,51.43
2023-02-13T21:25:31.419Z,51.26
2023-02-13T21:28:35.950Z,50.99
2023-02-13T21:31:44.434Z,50.82
2023-02-13T21:34:48.313Z,51.22
2023-02-13T21:37:52.137Z,51.03
2023-02-13T21:40:57.953Z,51.43
2023-02-13T21:44:01.910Z,51.57
2023-02-13T21:47:07.175Z,51.59
2023-02-13T21:50:11.708Z,52.12
2023-02-13T21:53:15.500Z,52.16
2023-02-13T21:56:22.218Z,52.31
2023-02-13T21:59:26.059Z,52.40
2023-02-13T22:02:30.020Z,52.35
2023-02-13T22:05:33.903Z,51.75
2023-02-13T22:08:37.827Z,51.48
2023-02-13T22:11:43.536Z,51.58
2023-02-13T22:14:47.279Z,51.66
2023-02-13T22:17:51.145Z,51.38
2023-02-13T22:20:55.575Z,51.59
2023-02-13T22:23:59.932Z,51.34
2023-02-13T22:27:05.434Z,52.00
2023-02-13T22:30:10.088Z,51.42
2023-02-13T22:33:13.905Z,50.94
2023-02-13T22:36:22.313Z,51.49
2023-02-13T22:39:26.346Z,51.92
2023-02-13T22:42:31.930Z,52.21
2023-02-13T22:45:36.445Z,52.56
2023-02-13T22:48:41.042Z,51.97
2023-02-13T22:51:44.745Z,52.67
2023-02-13T22:54:48.602Z,52.20
2023-02-13T22:57:54.637Z,52.45
2023-02-13T23:00:58.607Z,53.22
2023-02-13T23:04:02.618Z,53.56
2023-02-13T23:07:06.387Z,53.77
2023-02-13T23:10:10.663Z,53.99
2023-02-13T23:13:14.948Z,54.12
2023-02-13T23:16:18.841Z,53.36
2023-02-13T23:19:22.085Z,53.65
2023-02-13T23:22:25.897Z,53.09
2023-02-13T23:25:29.665Z,53.58
2023-02-13T23:28:35.097Z,52.66
2023-02-13T23:31:39.106Z,53.10
2023-02-13T23:34:42.986Z,52.80
2023-02-13T23:37:46.728Z,52.92
2023-02-13T23:40:50.498Z,53.05
2023-02-13T23:43:55.903Z,52.55
2023-02-13T23:46:59.595Z,53.44
2023-02-13T23:50:03.354Z,53.08
2023-02-13T23:53:06.932Z,53.35
2023-02-13T23:56:10.788Z,53.25
2023-02-13T23:59:17.594Z,53.32
